sensor_id;sensor_type;location;lat;lon;timestamp;P1;durP1;ratioP1;P2;durP2;ratioP2
3653;SDS011;70277;54.302;10.064;2024-03-25T00:00:46;4.65;;;1.95;;
3653;SDS011;70277;54.302;10.064;2024-03-25T00:03:12;2.47;;;1.83;;
3653;SDS011;70277;54.302;10.064;2024-03-25T00:05:37;3.75;;;1.83;;
3653;SDS011;70277;54.302;10.064;2024-03-25T00:08:03;2.47;;;1.75;;
3653;SDS011;70277;54.302;10.064;2024-03-25T00:10:29;1.58;;;1.48;;
3653;SDS011;70277;54.302;10.064;2024-03-25T00:12:54;4.20;;;2.03;;
3653;SDS011;70277;54.302;10.064;2024-03-25T00:15:21;1.88;;;1.52;;
3653;SDS011;70277;54.302;10.064;2024-03-25T00:17:49;6.20;;;2.10;;
3653;SDS011;70277;54.302;10.064;2024-03-25T00:20:14;4.80;;;1.77;;
3653;SDS011;70277;54.302;10.064;2024-03-25T00:22:40;1.85;;;1.45;;
3653;SDS011;70277;54.302;10.064;2024-03-25T00:25:06;4.55;;;2.10;;
3653;SDS011;70277;54.302;10.064;2024-03-25T00:27:32;4.53;;;2.05;;
3653;SDS011;70277;54.302;10.064;2024-03-25T00:29:58;2.42;;;1.90;;
3653;SDS011;70277;54.302;10.064;2024-03-25T00:32:24;2.53;;;1.73;;
3653;SDS011;70277;54.302;10.064;2024-03-25T00:34:50;4.20;;;2.03;;
3653;SDS011;70277;54.302;10.064;2024-03-25T00:37:15;3.35;;;1.85;;
3653;SDS011;70277;54.302;10.064;2024-03-25T00:39:41;2.40;;;1.50;;
3653;SDS011;70277;54.302;10.064;2024-03-25T00:42:06;2.03;;;1.70;;
3653;SDS011;70277;54.302;10.064;2024-03-25T00:44:32;2.60;;;1.88;;
3653;SDS011;70277;54.302;10.064;2024-03-25T00:46:58;2.92;;;1.83;;
3653;SDS011;70277;54.302;10.064;2024-03-25T00:49:23;5.95;;;1.60;;
3653;SDS011;70277;54.302;10.064;2024-03-25T00:51:50;3.08;;;1.70;;
3653;SDS011;70277;54.302;10.064;2024-03-25T00:54:15;2.20;;;1.63;;
3653;SDS011;70277;54.302;10.064;2024-03-25T00:56:41;7.40;;;1.83;;
3653;SDS011;70277;54.302;10.064;2024-03-25T00:59:06;4.68;;;2.00;;
3653;SDS011;70277;54.302;10.064;2024-03-25T01:01:32;2.20;;;1.88;;
3653;SDS011;70277;54.302;10.064;2024-03-25T01:04:01;3.60;;;1.92;;
3653;SDS011;70277;54.302;10.064;2024-03-25T01:06:27;4.35;;;1.70;;
3653;SDS011;70277;54.302;10.064;2024-03-25T01:08:52;2.83;;;2.17;;
3653;SDS011;70277;54.302;10.064;2024-03-25T01:11:18;6.88;;;2.30;;
3653;SDS011;70277;54.302;10.064;2024-03-25T01:13:44;3.30;;;2.20;;
3653;SDS011;70277;54.302;10.064;2024-03-25T01:16:09;2.35;;;2.00;;
3653;SDS011;70277;54.302;10.064;2024-03-25T01:18:35;3.38;;;2.30;;
3653;SDS011;70277;54.302;10.064;2024-03-25T01:21:01;3.78;;;2.30;;
3653;SDS011;70277;54.302;10.064;2024-03-25T01:23:27;4.38;;;2.33;;
3653;SDS011;70277;54.302;10.064;2024-03-25T01:25:53;6.72;;;2.30;;
3653;SDS011;70277;54.302;10.064;2024-03-25T01:28:18;3.05;;;2.22;;
3653;SDS011;70277;54.302;10.064;2024-03-25T01:30:44;6.97;;;2.70;;
3653;SDS011;70277;54.302;10.064;2024-03-25T01:33:09;3.35;;;2.47;;
3653;SDS011;70277;54.302;10.064;2024-03-25T01:35:35;4.15;;;2.20;;
3653;SDS011;70277;54.302;10.064;2024-03-25T01:38:01;3.63;;;2.13;;
3653;SDS011;70277;54.302;10.064;2024-03-25T01:40:26;6.97;;;2.63;;
3653;SDS011;70277;54.302;10.064;2024-03-25T01:42:59;6.40;;;2.58;;
3653;SDS011;70277;54.302;10.064;2024-03-25T01:45:26;3.88;;;2.63;;
3653;SDS011;70277;54.302;10.064;2024-03-25T01:47:54;5.18;;;2.10;;
3653;SDS011;70277;54.302;10.064;2024-03-25T01:50:22;4.03;;;2.35;;
3653;SDS011;70277;54.302;10.064;2024-03-25T01:52:48;7.72;;;2.60;;
3653;SDS011;70277;54.302;10.064;2024-03-25T01:55:15;2.83;;;2.10;;
3653;SDS011;70277;54.302;10.064;2024-03-25T01:57:49;4.20;;;2.35;;
3653;SDS011;70277;54.302;10.064;2024-03-25T02:00:15;8.02;;;2.55;;
3653;SDS011;70277;54.302;10.064;2024-03-25T02:02:44;6.70;;;2.65;;
3653;SDS011;70277;54.302;10.064;2024-03-25T02:05:11;4.80;;;2.50;;
3653;SDS011;70277;54.302;10.064;2024-03-25T02:07:37;5.40;;;2.58;;
3653;SDS011;70277;54.302;10.064;2024-03-25T02:10:04;3.00;;;2.47;;
3653;SDS011;70277;54.302;10.064;2024-03-25T02:12:30;6.47;;;2.75;;
3653;SDS011;70277;54.302;10.064;2024-03-25T02:14:56;6.30;;;2.53;;
3653;SDS011;70277;54.302;10.064;2024-03-25T02:17:23;6.95;;;2.45;;
3653;SDS011;70277;54.302;10.064;2024-03-25T02:19:49;6.38;;;2.47;;
3653;SDS011;70277;54.302;10.064;2024-03-25T02:22:16;6.97;;;3.47;;
3653;SDS011;70277;54.302;10.064;2024-03-25T02:24:42;8.15;;;2.85;;
3653;SDS011;70277;54.302;10.064;2024-03-25T02:27:11;4.40;;;2.55;;
3653;SDS011;70277;54.302;10.064;2024-03-25T02:29:40;4.22;;;2.42;;
3653;SDS011;70277;54.302;10.064;2024-03-25T02:32:07;10.85;;;3.47;;
3653;SDS011;70277;54.302;10.064;2024-03-25T02:34:46;4.50;;;2.80;;
3653;SDS011;70277;54.302;10.064;2024-03-25T02:39:42;3.17;;;2.35;;
3653;SDS011;70277;54.302;10.064;2024-03-25T02:42:09;8.15;;;3.20;;
3653;SDS011;70277;54.302;10.064;2024-03-25T02:44:34;7.03;;;2.45;;
3653;SDS011;70277;54.302;10.064;2024-03-25T02:47:00;3.15;;;2.72;;
3653;SDS011;70277;54.302;10.064;2024-03-25T02:49:27;6.03;;;3.15;;
3653;SDS011;70277;54.302;10.064;2024-03-25T02:51:53;6.70;;;2.83;;
3653;SDS011;70277;54.302;10.064;2024-03-25T02:54:19;5.03;;;2.55;;
3653;SDS011;70277;54.302;10.064;2024-03-25T02:56:45;4.47;;;2.58;;
3653;SDS011;70277;54.302;10.064;2024-03-25T02:59:11;7.47;;;2.90;;
3653;SDS011;70277;54.302;10.064;2024-03-25T03:01:36;10.32;;;2.70;;
3653;SDS011;70277;54.302;10.064;2024-03-25T03:04:02;6.05;;;2.70;;
3653;SDS011;70277;54.302;10.064;2024-03-25T03:06:28;5.00;;;2.30;;
3653;SDS011;70277;54.302;10.064;2024-03-25T03:08:54;8.23;;;3.05;;
3653;SDS011;70277;54.302;10.064;2024-03-25T03:11:19;6.22;;;2.63;;
3653;SDS011;70277;54.302;10.064;2024-03-25T03:13:45;8.98;;;2.78;;
3653;SDS011;70277;54.302;10.064;2024-03-25T03:16:11;9.73;;;2.50;;
3653;SDS011;70277;54.302;10.064;2024-03-25T03:18:37;8.05;;;2.67;;
3653;SDS011;70277;54.302;10.064;2024-03-25T03:21:02;8.00;;;2.70;;
3653;SDS011;70277;54.302;10.064;2024-03-25T03:23:28;9.18;;;2.95;;
3653;SDS011;70277;54.302;10.064;2024-03-25T03:25:54;8.32;;;2.72;;
3653;SDS011;70277;54.302;10.064;2024-03-25T03:28:20;9.43;;;3.00;;
3653;SDS011;70277;54.302;10.064;2024-03-25T03:30:46;9.75;;;2.58;;
3653;SDS011;70277;54.302;10.064;2024-03-25T03:33:11;5.55;;;2.28;;
3653;SDS011;70277;54.302;10.064;2024-03-25T03:35:37;17.50;;;2.78;;
3653;SDS011;70277;54.302;10.064;2024-03-25T03:38:02;6.40;;;2.85;;
3653;SDS011;70277;54.302;10.064;2024-03-25T03:40:29;8.45;;;2.67;;
3653;SDS011;70277;54.302;10.064;2024-03-25T03:42:55;6.00;;;2.92;;
3653;SDS011;70277;54.302;10.064;2024-03-25T03:45:21;6.80;;;2.30;;
3653;SDS011;70277;54.302;10.064;2024-03-25T03:47:49;5.60;;;2.25;;
3653;SDS011;70277;54.302;10.064;2024-03-25T03:50:15;10.80;;;3.50;;
3653;SDS011;70277;54.302;10.064;2024-03-25T03:52:40;3.97;;;2.10;;
3653;SDS011;70277;54.302;10.064;2024-03-25T03:55:06;4.60;;;1.75;;
3653;SDS011;70277;54.302;10.064;2024-03-25T03:57:32;7.20;;;2.22;;
3653;SDS011;70277;54.302;10.064;2024-03-25T03:59:58;8.73;;;2.35;;
3653;SDS011;70277;54.302;10.064;2024-03-25T04:02:24;8.40;;;2.15;;
3653;SDS011;70277;54.302;10.064;2024-03-25T04:04:51;3.83;;;1.77;;
3653;SDS011;70277;54.302;10.064;2024-03-25T04:07:16;6.60;;;1.85;;
3653;SDS011;70277;54.302;10.064;2024-03-25T04:09:43;5.15;;;1.55;;
3653;SDS011;70277;54.302;10.064;2024-03-25T04:12:08;5.82;;;2.05;;
3653;SDS011;70277;54.302;10.064;2024-03-25T04:14:34;6.50;;;1.70;;
3653;SDS011;70277;54.302;10.064;2024-03-25T04:16:59;3.35;;;1.50;;
3653;SDS011;70277;54.302;10.064;2024-03-25T04:19:26;6.47;;;2.75;;
3653;SDS011;70277;54.302;10.064;2024-03-25T04:21:55;3.65;;;1.50;;
3653;SDS011;70277;54.302;10.064;2024-03-25T04:24:21;12.15;;;2.67;;
3653;SDS011;70277;54.302;10.064;2024-03-25T04:26:47;5.38;;;1.60;;
3653;SDS011;70277;54.302;10.064;2024-03-25T04:29:14;2.88;;;1.60;;
3653;SDS011;70277;54.302;10.064;2024-03-25T04:31:41;2.25;;;1.35;;
3653;SDS011;70277;54.302;10.064;2024-03-25T04:34:06;4.70;;;1.67;;
3653;SDS011;70277;54.302;10.064;2024-03-25T04:36:32;1.85;;;1.25;;
3653;SDS011;70277;54.302;10.064;2024-03-25T04:38:58;1.60;;;1.08;;
3653;SDS011;70277;54.302;10.064;2024-03-25T04:41:23;1.35;;;1.20;;
3653;SDS011;70277;54.302;10.064;2024-03-25T04:43:49;4.45;;;1.55;;
3653;SDS011;70277;54.302;10.064;2024-03-25T04:46:14;3.90;;;2.45;;
3653;SDS011;70277;54.302;10.064;2024-03-25T04:48:40;3.20;;;1.60;;
3653;SDS011;70277;54.302;10.064;2024-03-25T04:51:06;2.22;;;1.50;;
3653;SDS011;70277;54.302;10.064;2024-03-25T04:53:32;2.42;;;1.63;;
3653;SDS011;70277;54.302;10.064;2024-03-25T04:55:57;5.68;;;1.33;;
3653;SDS011;70277;54.302;10.064;2024-03-25T04:58:23;5.10;;;1.70;;
3653;SDS011;70277;54.302;10.064;2024-03-25T05:00:48;5.80;;;1.70;;
3653;SDS011;70277;54.302;10.064;2024-03-25T05:03:14;2.88;;;1.48;;
3653;SDS011;70277;54.302;10.064;2024-03-25T05:05:39;2.72;;;1.40;;
3653;SDS011;70277;54.302;10.064;2024-03-25T05:08:06;4.15;;;1.40;;
3653;SDS011;70277;54.302;10.064;2024-03-25T05:10:31;4.45;;;1.10;;
3653;SDS011;70277;54.302;10.064;2024-03-25T05:12:57;3.00;;;1.58;;
3653;SDS011;70277;54.302;10.064;2024-03-25T05:15:23;1.65;;;1.33;;
3653;SDS011;70277;54.302;10.064;2024-03-25T05:17:48;2.80;;;1.45;;
3653;SDS011;70277;54.302;10.064;2024-03-25T05:20:14;8.55;;;1.67;;
3653;SDS011;70277;54.302;10.064;2024-03-25T05:22:39;3.38;;;1.30;;
3653;SDS011;70277;54.302;10.064;2024-03-25T05:25:05;2.33;;;1.45;;
3653;SDS011;70277;54.302;10.064;2024-03-25T05:27:31;4.47;;;1.52;;
3653;SDS011;70277;54.302;10.064;2024-03-25T05:29:56;3.85;;;1.90;;
3653;SDS011;70277;54.302;10.064;2024-03-25T05:32:22;7.50;;;1.40;;
3653;SDS011;70277;54.302;10.064;2024-03-25T05:34:48;3.00;;;1.30;;
3653;SDS011;70277;54.302;10.064;2024-03-25T05:37:14;3.08;;;1.52;;
3653;SDS011;70277;54.302;10.064;2024-03-25T05:39:39;3.85;;;1.33;;
3653;SDS011;70277;54.302;10.064;2024-03-25T05:42:05;3.22;;;1.20;;
3653;SDS011;70277;54.302;10.064;2024-03-25T05:44:31;6.63;;;1.50;;
3653;SDS011;70277;54.302;10.064;2024-03-25T05:46:56;3.70;;;1.38;;
3653;SDS011;70277;54.302;10.064;2024-03-25T05:49:22;5.15;;;1.65;;
3653;SDS011;70277;54.302;10.064;2024-03-25T05:51:48;3.97;;;1.50;;
3653;SDS011;70277;54.302;10.064;2024-03-25T05:54:14;3.60;;;1.70;;
3653;SDS011;70277;54.302;10.064;2024-03-25T05:56:39;5.13;;;1.33;;
3653;SDS011;70277;54.302;10.064;2024-03-25T05:59:05;12.68;;;1.77;;
3653;SDS011;70277;54.302;10.064;2024-03-25T06:01:31;2.65;;;1.33;;
3653;SDS011;70277;54.302;10.064;2024-03-25T06:03:56;3.47;;;1.45;;
3653;SDS011;70277;54.302;10.064;2024-03-25T06:06:23;7.32;;;1.63;;
3653;SDS011;70277;54.302;10.064;2024-03-25T06:08:48;4.00;;;2.13;;
3653;SDS011;70277;54.302;10.064;2024-03-25T06:11:16;3.80;;;1.67;;
3653;SDS011;70277;54.302;10.064;2024-03-25T06:13:45;2.58;;;1.58;;
3653;SDS011;70277;54.302;10.064;2024-03-25T06:16:13;5.97;;;1.70;;
3653;SDS011;70277;54.302;10.064;2024-03-25T06:18:39;3.53;;;1.65;;
3653;SDS011;70277;54.302;10.064;2024-03-25T06:21:05;4.57;;;1.77;;
3653;SDS011;70277;54.302;10.064;2024-03-25T06:23:31;3.67;;;1.60;;
3653;SDS011;70277;54.302;10.064;2024-03-25T06:25:57;7.53;;;1.95;;
3653;SDS011;70277;54.302;10.064;2024-03-25T06:28:23;5.00;;;1.85;;
3653;SDS011;70277;54.302;10.064;2024-03-25T06:30:49;2.65;;;1.50;;
3653;SDS011;70277;54.302;10.064;2024-03-25T06:33:34;4.60;;;1.33;;
3653;SDS011;70277;54.302;10.064;2024-03-25T06:36:19;4.05;;;1.65;;
3653;SDS011;70277;54.302;10.064;2024-03-25T06:38:45;7.50;;;1.40;;
3653;SDS011;70277;54.302;10.064;2024-03-25T06:41:11;5.00;;;1.40;;
3653;SDS011;70277;54.302;10.064;2024-03-25T06:43:37;4.50;;;1.38;;
3653;SDS011;70277;54.302;10.064;2024-03-25T06:46:06;4.60;;;1.60;;
3653;SDS011;70277;54.302;10.064;2024-03-25T06:48:32;2.75;;;1.50;;
3653;SDS011;70277;54.302;10.064;2024-03-25T06:51:00;4.20;;;1.55;;
3653;SDS011;70277;54.302;10.064;2024-03-25T06:53:28;1.88;;;1.20;;
3653;SDS011;70277;54.302;10.064;2024-03-25T06:55:58;4.53;;;1.48;;
3653;SDS011;70277;54.302;10.064;2024-03-25T06:58:25;4.28;;;1.40;;
3653;SDS011;70277;54.302;10.064;2024-03-25T07:00:52;5.30;;;1.48;;
3653;SDS011;70277;54.302;10.064;2024-03-25T07:03:19;4.45;;;1.02;;
3653;SDS011;70277;54.302;10.064;2024-03-25T07:05:49;2.78;;;1.05;;
3653;SDS011;70277;54.302;10.064;2024-03-25T07:08:20;1.50;;;1.10;;
3653;SDS011;70277;54.302;10.064;2024-03-25T07:10:45;1.38;;;1.05;;
3653;SDS011;70277;54.302;10.064;2024-03-25T07:13:11;1.95;;;1.13;;
3653;SDS011;70277;54.302;10.064;2024-03-25T07:15:38;3.90;;;1.30;;
3653;SDS011;70277;54.302;10.064;2024-03-25T07:18:04;1.92;;;1.08;;
3653;SDS011;70277;54.302;10.064;2024-03-25T07:20:30;4.22;;;1.02;;
3653;SDS011;70277;54.302;10.064;2024-03-25T07:22:57;3.30;;;1.23;;
3653;SDS011;70277;54.302;10.064;2024-03-25T07:25:23;3.75;;;1.00;;
3653;SDS011;70277;54.302;10.064;2024-03-25T07:27:49;2.17;;;1.20;;
3653;SDS011;70277;54.302;10.064;2024-03-25T07:30:15;4.60;;;1.30;;
3653;SDS011;70277;54.302;10.064;2024-03-25T07:32:41;2.88;;;1.10;;
3653;SDS011;70277;54.302;10.064;2024-03-25T07:35:06;1.90;;;1.38;;
3653;SDS011;70277;54.302;10.064;2024-03-25T07:37:34;3.92;;;1.20;;
3653;SDS011;70277;54.302;10.064;2024-03-25T07:39:59;9.23;;;1.70;;
3653;SDS011;70277;54.302;10.064;2024-03-25T07:42:25;5.38;;;1.00;;
3653;SDS011;70277;54.302;10.064;2024-03-25T07:44:51;7.88;;;1.20;;
3653;SDS011;70277;54.302;10.064;2024-03-25T07:47:17;5.15;;;1.00;;
3653;SDS011;70277;54.302;10.064;2024-03-25T07:49:42;4.28;;;1.35;;
3653;SDS011;70277;54.302;10.064;2024-03-25T07:52:08;4.03;;;1.25;;
3653;SDS011;70277;54.302;10.064;2024-03-25T07:54:33;5.78;;;1.30;;
3653;SDS011;70277;54.302;10.064;2024-03-25T07:56:59;4.32;;;1.20;;
3653;SDS011;70277;54.302;10.064;2024-03-25T07:59:24;8.00;;;1.10;;
3653;SDS011;70277;54.302;10.064;2024-03-25T08:01:50;4.30;;;1.17;;
3653;SDS011;70277;54.302;10.064;2024-03-25T08:04:16;4.97;;;1.35;;
3653;SDS011;70277;54.302;10.064;2024-03-25T08:06:41;3.80;;;1.10;;
3653;SDS011;70277;54.302;10.064;2024-03-25T08:09:07;5.07;;;1.20;;
3653;SDS011;70277;54.302;10.064;2024-03-25T08:11:34;13.02;;;1.70;;
3653;SDS011;70277;54.302;10.064;2024-03-25T08:14:00;6.18;;;1.10;;
3653;SDS011;70277;54.302;10.064;2024-03-25T08:16:25;9.75;;;1.60;;
3653;SDS011;70277;54.302;10.064;2024-03-25T08:18:51;7.93;;;1.75;;
3653;SDS011;70277;54.302;10.064;2024-03-25T08:21:17;5.63;;;1.40;;
3653;SDS011;70277;54.302;10.064;2024-03-25T08:23:46;8.57;;;1.52;;
3653;SDS011;70277;54.302;10.064;2024-03-25T08:26:11;5.10;;;1.17;;
3653;SDS011;70277;54.302;10.064;2024-03-25T08:28:37;3.35;;;1.27;;
3653;SDS011;70277;54.302;10.064;2024-03-25T08:31:03;8.98;;;1.70;;
3653;SDS011;70277;54.302;10.064;2024-03-25T08:33:29;6.47;;;1.65;;
3653;SDS011;70277;54.302;10.064;2024-03-25T08:35:55;11.25;;;1.20;;
3653;SDS011;70277;54.302;10.064;2024-03-25T08:38:20;7.07;;;1.55;;
3653;SDS011;70277;54.302;10.064;2024-03-25T08:40:46;4.50;;;1.10;;
3653;SDS011;70277;54.302;10.064;2024-03-25T08:43:12;6.70;;;1.30;;
3653;SDS011;70277;54.302;10.064;2024-03-25T08:45:38;4.60;;;1.00;;
3653;SDS011;70277;54.302;10.064;2024-03-25T08:48:03;7.68;;;1.48;;
3653;SDS011;70277;54.302;10.064;2024-03-25T08:50:29;6.72;;;1.70;;
3653;SDS011;70277;54.302;10.064;2024-03-25T08:52:55;6.28;;;1.33;;
3653;SDS011;70277;54.302;10.064;2024-03-25T08:55:20;4.47;;;1.42;;
3653;SDS011;70277;54.302;10.064;2024-03-25T08:57:46;6.20;;;1.33;;
3653;SDS011;70277;54.302;10.064;2024-03-25T09:00:12;7.95;;;1.63;;
3653;SDS011;70277;54.302;10.064;2024-03-25T09:02:38;6.40;;;1.30;;
3653;SDS011;70277;54.302;10.064;2024-03-25T09:05:03;7.10;;;1.50;;
3653;SDS011;70277;54.302;10.064;2024-03-25T09:07:35;6.30;;;1.35;;
3653;SDS011;70277;54.302;10.064;2024-03-25T09:10:02;5.32;;;1.15;;
3653;SDS011;70277;54.302;10.064;2024-03-25T09:12:46;4.90;;;1.23;;
3653;SDS011;70277;54.302;10.064;2024-03-25T09:15:12;11.65;;;1.40;;
3653;SDS011;70277;54.302;10.064;2024-03-25T09:17:37;11.25;;;1.17;;
3653;SDS011;70277;54.302;10.064;2024-03-25T09:20:04;7.35;;;1.58;;
3653;SDS011;70277;54.302;10.064;2024-03-25T09:22:41;5.75;;;1.10;;
3653;SDS011;70277;54.302;10.064;2024-03-25T09:25:10;8.57;;;1.17;;
3653;SDS011;70277;54.302;10.064;2024-03-25T09:27:36;6.80;;;1.20;;
3653;SDS011;70277;54.302;10.064;2024-03-25T09:30:02;7.70;;;1.48;;
3653;SDS011;70277;54.302;10.064;2024-03-25T09:32:29;3.08;;;0.93;;
3653;SDS011;70277;54.302;10.064;2024-03-25T09:34:58;5.57;;;1.35;;
3653;SDS011;70277;54.302;10.064;2024-03-25T09:37:24;9.50;;;1.10;;
3653;SDS011;70277;54.302;10.064;2024-03-25T09:39:50;8.15;;;1.10;;
3653;SDS011;70277;54.302;10.064;2024-03-25T09:42:17;5.25;;;1.25;;
3653;SDS011;70277;54.302;10.064;2024-03-25T09:44:51;8.57;;;1.35;;
3653;SDS011;70277;54.302;10.064;2024-03-25T09:47:18;7.15;;;1.02;;
3653;SDS011;70277;54.302;10.064;2024-03-25T09:49:44;3.22;;;0.90;;
3653;SDS011;70277;54.302;10.064;2024-03-25T09:52:11;6.28;;;0.80;;
3653;SDS011;70277;54.302;10.064;2024-03-25T09:54:37;7.00;;;1.13;;
3653;SDS011;70277;54.302;10.064;2024-03-25T09:57:03;5.88;;;1.35;;
3653;SDS011;70277;54.302;10.064;2024-03-25T09:59:29;10.10;;;1.40;;
3653;SDS011;70277;54.302;10.064;2024-03-25T10:01:55;5.15;;;1.10;;
3653;SDS011;70277;54.302;10.064;2024-03-25T10:04:21;4.30;;;0.82;;
3653;SDS011;70277;54.302;10.064;2024-03-25T10:06:46;7.85;;;1.92;;
3653;SDS011;70277;54.302;10.064;2024-03-25T10:09:13;7.47;;;1.35;;
3653;SDS011;70277;54.302;10.064;2024-03-25T10:11:44;3.30;;;0.98;;
3653;SDS011;70277;54.302;10.064;2024-03-25T10:14:13;7.18;;;1.35;;
3653;SDS011;70277;54.302;10.064;2024-03-25T10:16:39;10.13;;;2.63;;
3653;SDS011;70277;54.302;10.064;2024-03-25T10:19:05;6.05;;;1.00;;
3653;SDS011;70277;54.302;10.064;2024-03-25T10:21:30;9.68;;;1.33;;
3653;SDS011;70277;54.302;10.064;2024-03-25T10:23:56;6.03;;;1.20;;
3653;SDS011;70277;54.302;10.064;2024-03-25T10:26:25;9.07;;;1.42;;
3653;SDS011;70277;54.302;10.064;2024-03-25T10:29:02;12.10;;;2.50;;
3653;SDS011;70277;54.302;10.064;2024-03-25T10:31:29;11.20;;;1.92;;
3653;SDS011;70277;54.302;10.064;2024-03-25T10:33:55;9.73;;;1.90;;
3653;SDS011;70277;54.302;10.064;2024-03-25T10:36:21;12.25;;;1.50;;
3653;SDS011;70277;54.302;10.064;2024-03-25T10:38:50;11.60;;;1.60;;
3653;SDS011;70277;54.302;10.064;2024-03-25T10:41:19;10.40;;;1.83;;
3653;SDS011;70277;54.302;10.064;2024-03-25T10:43:46;8.27;;;1.40;;
3653;SDS011;70277;54.302;10.064;2024-03-25T10:46:17;15.02;;;2.83;;
3653;SDS011;70277;54.302;10.064;2024-03-25T10:48:52;8.68;;;1.50;;
3653;SDS011;70277;54.302;10.064;2024-03-25T10:51:22;9.52;;;1.60;;
3653;SDS011;70277;54.302;10.064;2024-03-25T10:53:51;8.18;;;1.85;;
3653;SDS011;70277;54.302;10.064;2024-03-25T10:56:22;12.85;;;2.22;;
3653;SDS011;70277;54.302;10.064;2024-03-25T10:58:49;7.72;;;1.55;;
3653;SDS011;70277;54.302;10.064;2024-03-25T11:01:16;8.60;;;1.30;;
3653;SDS011;70277;54.302;10.064;2024-03-25T11:03:42;7.95;;;1.33;;
3653;SDS011;70277;54.302;10.064;2024-03-25T11:06:09;12.88;;;1.30;;
3653;SDS011;70277;54.302;10.064;2024-03-25T11:08:34;9.13;;;1.80;;
3653;SDS011;70277;54.302;10.064;2024-03-25T11:11:00;5.82;;;1.10;;
3653;SDS011;70277;54.302;10.064;2024-03-25T11:13:26;8.82;;;1.55;;
3653;SDS011;70277;54.302;10.064;2024-03-25T11:15:53;3.67;;;1.00;;
3653;SDS011;70277;54.302;10.064;2024-03-25T11:18:22;7.90;;;1.17;;
3653;SDS011;70277;54.302;10.064;2024-03-25T11:21:26;15.55;;;3.92;;
3653;SDS011;70277;54.302;10.064;2024-03-25T11:23:49;7.55;;;1.10;;
3653;SDS011;70277;54.302;10.064;2024-03-25T11:26:22;7.40;;;1.55;;
3653;SDS011;70277;54.302;10.064;2024-03-25T11:28:50;4.30;;;1.13;;
3653;SDS011;70277;54.302;10.064;2024-03-25T11:31:16;8.50;;;1.40;;
3653;SDS011;70277;54.302;10.064;2024-03-25T11:33:42;8.55;;;1.13;;
3653;SDS011;70277;54.302;10.064;2024-03-25T11:36:07;3.15;;;0.85;;
3653;SDS011;70277;54.302;10.064;2024-03-25T11:38:34;4.32;;;0.85;;
3653;SDS011;70277;54.302;10.064;2024-03-25T11:41:00;7.05;;;1.15;;
3653;SDS011;70277;54.302;10.064;2024-03-25T11:43:26;3.63;;;1.00;;
3653;SDS011;70277;54.302;10.064;2024-03-25T11:45:51;4.45;;;0.90;;
3653;SDS011;70277;54.302;10.064;2024-03-25T11:48:19;5.78;;;1.05;;
3653;SDS011;70277;54.302;10.064;2024-03-25T11:50:48;5.05;;;0.85;;
3653;SDS011;70277;54.302;10.064;2024-03-25T11:53:14;1.80;;;1.00;;
3653;SDS011;70277;54.302;10.064;2024-03-25T11:55:48;6.82;;;1.42;;
3653;SDS011;70277;54.302;10.064;2024-03-25T11:58:14;6.00;;;1.20;;
3653;SDS011;70277;54.302;10.064;2024-03-25T12:00:47;5.25;;;1.10;;
3653;SDS011;70277;54.302;10.064;2024-03-25T12:03:16;4.05;;;1.13;;
3653;SDS011;70277;54.302;10.064;2024-03-25T12:05:45;3.83;;;1.27;;
3653;SDS011;70277;54.302;10.064;2024-03-25T12:08:11;3.63;;;1.10;;
3653;SDS011;70277;54.302;10.064;2024-03-25T12:10:38;8.82;;;1.23;;
3653;SDS011;70277;54.302;10.064;2024-03-25T12:13:23;10.15;;;1.33;;
3653;SDS011;70277;54.302;10.064;2024-03-25T12:15:50;6.53;;;1.10;;
3653;SDS011;70277;54.302;10.064;2024-03-25T12:18:16;13.52;;;1.50;;
3653;SDS011;70277;54.302;10.064;2024-03-25T12:20:47;8.23;;;1.33;;
3653;SDS011;70277;54.302;10.064;2024-03-25T12:23:13;10.05;;;1.30;;
3653;SDS011;70277;54.302;10.064;2024-03-25T12:25:40;5.00;;;1.10;;
3653;SDS011;70277;54.302;10.064;2024-03-25T12:28:09;3.13;;;0.98;;
3653;SDS011;70277;54.302;10.064;2024-03-25T12:30:54;8.75;;;1.27;;
3653;SDS011;70277;54.302;10.064;2024-03-25T12:33:21;7.00;;;1.10;;
3653;SDS011;70277;54.302;10.064;2024-03-25T12:35:48;7.55;;;1.05;;
3653;SDS011;70277;54.302;10.064;2024-03-25T12:38:28;4.40;;;1.20;;
3653;SDS011;70277;54.302;10.064;2024-03-25T12:41:03;6.07;;;1.20;;
3653;SDS011;70277;54.302;10.064;2024-03-25T12:43:33;6.82;;;1.30;;
3653;SDS011;70277;54.302;10.064;2024-03-25T12:46:00;4.78;;;1.23;;
3653;SDS011;70277;54.302;10.064;2024-03-25T12:48:26;3.97;;;1.33;;
3653;SDS011;70277;54.302;10.064;2024-03-25T12:50:52;4.65;;;1.25;;
3653;SDS011;70277;54.302;10.064;2024-03-25T12:53:19;5.35;;;1.02;;
3653;SDS011;70277;54.302;10.064;2024-03-25T12:55:48;4.60;;;1.15;;
3653;SDS011;70277;54.302;10.064;2024-03-25T12:58:14;7.75;;;1.25;;
3653;SDS011;70277;54.302;10.064;2024-03-25T13:00:40;9.70;;;2.40;;
3653;SDS011;70277;54.302;10.064;2024-03-25T13:03:06;6.50;;;1.00;;
3653;SDS011;70277;54.302;10.064;2024-03-25T13:05:33;6.28;;;1.60;;
3653;SDS011;70277;54.302;10.064;2024-03-25T13:08:00;6.38;;;1.00;;
3653;SDS011;70277;54.302;10.064;2024-03-25T13:10:26;4.10;;;1.08;;
3653;SDS011;70277;54.302;10.064;2024-03-25T13:12:52;7.75;;;1.73;;
3653;SDS011;70277;54.302;10.064;2024-03-25T13:15:18;2.78;;;0.70;;
3653;SDS011;70277;54.302;10.064;2024-03-25T13:17:44;8.15;;;1.35;;
3653;SDS011;70277;54.302;10.064;2024-03-25T13:20:09;4.15;;;1.20;;
3653;SDS011;70277;54.302;10.064;2024-03-25T13:22:35;5.55;;;1.30;;
3653;SDS011;70277;54.302;10.064;2024-03-25T13:25:01;3.40;;;1.10;;
3653;SDS011;70277;54.302;10.064;2024-03-25T13:27:27;6.93;;;1.30;;
3653;SDS011;70277;54.302;10.064;2024-03-25T13:29:52;4.30;;;1.05;;
3653;SDS011;70277;54.302;10.064;2024-03-25T13:32:21;7.47;;;1.55;;
3653;SDS011;70277;54.302;10.064;2024-03-25T13:37:13;4.10;;;1.10;;
3653;SDS011;70277;54.302;10.064;2024-03-25T13:39:39;6.50;;;1.50;;
3653;SDS011;70277;54.302;10.064;2024-03-25T13:42:04;5.85;;;1.25;;
3653;SDS011;70277;54.302;10.064;2024-03-25T13:44:30;4.22;;;0.90;;
3653;SDS011;70277;54.302;10.064;2024-03-25T13:46:56;7.32;;;1.27;;
3653;SDS011;70277;54.302;10.064;2024-03-25T13:49:22;8.07;;;1.10;;
3653;SDS011;70277;54.302;10.064;2024-03-25T13:51:58;5.00;;;1.05;;
3653;SDS011;70277;54.302;10.064;2024-03-25T13:54:24;6.13;;;1.23;;
3653;SDS011;70277;54.302;10.064;2024-03-25T13:56:50;13.98;;;1.38;;
3653;SDS011;70277;54.302;10.064;2024-03-25T13:59:16;7.28;;;0.90;;
3653;SDS011;70277;54.302;10.064;2024-03-25T14:01:42;5.38;;;1.00;;
3653;SDS011;70277;54.302;10.064;2024-03-25T14:04:07;5.95;;;1.13;;
3653;SDS011;70277;54.302;10.064;2024-03-25T14:06:33;3.03;;;1.10;;
3653;SDS011;70277;54.302;10.064;2024-03-25T14:08:59;6.25;;;1.40;;
3653;SDS011;70277;54.302;10.064;2024-03-25T14:11:25;5.30;;;0.88;;
3653;SDS011;70277;54.302;10.064;2024-03-25T14:13:50;4.70;;;1.10;;
3653;SDS011;70277;54.302;10.064;2024-03-25T14:16:16;6.30;;;1.13;;
3653;SDS011;70277;54.302;10.064;2024-03-25T14:18:42;3.53;;;1.00;;
3653;SDS011;70277;54.302;10.064;2024-03-25T14:21:08;3.97;;;0.75;;
3653;SDS011;70277;54.302;10.064;2024-03-25T14:23:33;3.95;;;1.13;;
3653;SDS011;70277;54.302;10.064;2024-03-25T14:25:59;5.47;;;1.10;;
3653;SDS011;70277;54.302;10.064;2024-03-25T14:28:24;4.68;;;0.90;;
3653;SDS011;70277;54.302;10.064;2024-03-25T14:30:50;5.88;;;1.25;;
3653;SDS011;70277;54.302;10.064;2024-03-25T14:33:17;5.72;;;1.40;;
3653;SDS011;70277;54.302;10.064;2024-03-25T14:35:43;1.77;;;0.60;;
3653;SDS011;70277;54.302;10.064;2024-03-25T14:38:08;6.22;;;1.33;;
3653;SDS011;70277;54.302;10.064;2024-03-25T14:40:38;6.72;;;1.20;;
3653;SDS011;70277;54.302;10.064;2024-03-25T14:43:04;2.13;;;0.90;;
3653;SDS011;70277;54.302;10.064;2024-03-25T14:45:30;6.35;;;1.05;;
3653;SDS011;70277;54.302;10.064;2024-03-25T14:47:55;10.27;;;1.00;;